Terminal Aerodrome Forecast
Issued by NWS

Home | Current Version | Previous Version | Text Only | Print | Product List | Glossary Off
Versions: 1 2 3 4 5 6 7 8 9 10 11 12 13 14 15 16

000
FTUS43 KIWX 281600 AAA
TAFSBN
TAF AMD
KSBN 281605Z 2816/2912 VRB03KT P6SM SCT020
     FM281800 09005KT P6SM BKN025
     FM290100 11006KT P6SM SCT070 OVC150=

USA.gov is the U.S. government's official web portal to all federal, state and local government web resources and services.